createdAt,value
2019-04-20T00:00:51.515Z,13.25
2019-04-20T00:01:47.428Z,13.33
2019-04-20T00:02:50.126Z,13.33
2019-04-20T00:03:49.001Z,13.30
2019-04-20T00:04:47.554Z,13.33
2019-04-20T00:05:48.854Z,13.33
2019-04-20T00:06:51.128Z,13.29
2019-04-20T00:07:48.082Z,13.22
2019-04-20T00:08:51.257Z,13.21
2019-04-20T00:09:55.209Z,13.11
2019-04-20T00:10:56.997Z,13.09
2019-04-20T00:11:58.658Z,13.15
2019-04-20T00:13:01.106Z,13.15
2019-04-20T00:13:54.946Z,13.15
2019-04-20T00:14:48.095Z,12.99
2019-04-20T00:15:49.145Z,13.03
2019-04-20T00:16:48.335Z,13.09
2019-04-20T00:17:56.114Z,13.12
2019-04-20T00:18:51.963Z,13.25
2019-04-20T00:19:53.801Z,13.20
2019-04-20T00:20:51.424Z,13.43
2019-04-20T00:21:55.330Z,13.46
2019-04-20T00:22:51.708Z,13.58
2019-04-20T00:23:50.272Z,13.56
2019-04-20T00:24:51.580Z,13.58
2019-04-20T00:26:00.113Z,13.63
2019-04-20T00:28:04.663Z,13.62
2019-04-20T00:29:08.663Z,13.61
2019-04-20T00:30:04.020Z,13.59
2019-04-20T00:31:08.573Z,13.63
2019-04-20T00:32:00.592Z,13.56
2019-04-20T00:32:58.560Z,13.49
2019-04-20T00:33:59.422Z,13.51
2019-04-20T00:34:50.598Z,13.36
2019-04-20T00:35:50.327Z,13.41
2019-04-20T00:36:49.728Z,13.32
2019-04-20T00:37:49.139Z,13.25
2019-04-20T00:38:53.396Z,13.22
2019-04-20T00:39:49.255Z,13.15
2019-04-20T00:40:56.147Z,13.09
2019-04-20T00:41:56.236Z,13.20
2019-04-20T00:42:53.827Z,13.22
2019-04-20T00:43:49.430Z,13.17
2019-04-20T00:45:00.130Z,13.18
2019-04-20T00:45:53.689Z,13.18
2019-04-20T00:47:03.162Z,13.11
2019-04-20T00:47:56.292Z,13.07
2019-04-20T00:48:56.647Z,13.04
2019-04-20T00:50:01.306Z,13.03
2019-04-20T00:51:06.992Z,13.02
2019-04-20T00:52:18.831Z,13.03
2019-04-20T00:53:05.688Z,13.00
2019-04-20T00:53:52.364Z,12.93
2019-04-20T00:54:49.971Z,12.99
2019-04-20T00:55:50.775Z,13.00
2019-04-20T00:56:50.052Z,13.03
2019-04-20T00:57:55.345Z,13.12
2019-04-20T00:59:05.467Z,13.04
2019-04-20T01:00:11.018Z,13.07
2019-04-20T01:01:17.119Z,12.95
2019-04-20T01:02:10.880Z,12.97
2019-04-20T01:03:04.252Z,12.99
2019-04-20T01:04:10.658Z,12.92
2019-04-20T01:05:12.842Z,12.88
2019-04-20T01:06:12.114Z,12.75
2019-04-20T01:07:06.196Z,12.78
2019-04-20T01:07:56.205Z,12.64
2019-04-20T01:08:50.874Z,12.59
2019-04-20T01:09:51.921Z,12.52
2019-04-20T01:10:54.103Z,12.51
2019-04-20T01:11:51.684Z,12.41
2019-04-20T01:12:52.091Z,12.48
2019-04-20T01:13:55.612Z,12.42
2019-04-20T01:14:55.953Z,12.33
2019-04-20T01:15:58.868Z,12.29
2019-04-20T01:16:58.801Z,12.20
2019-04-20T01:17:51.046Z,12.21
2019-04-20T01:18:51.098Z,12.19
2019-04-20T01:19:52.717Z,12.09
2019-04-20T01:20:51.444Z,11.99
2019-04-20T01:21:57.871Z,11.97
2019-04-20T01:22:59.669Z,11.89
2019-04-20T01:23:56.567Z,12.02
2019-04-20T01:24:52.997Z,11.94
2019-04-20T01:25:56.826Z,12.11
2019-04-20T01:26:55.979Z,12.05
2019-04-20T01:28:08.124Z,12.12
2019-04-20T01:29:06.772Z,12.20
2019-04-20T01:30:02.374Z,12.30
2019-04-20T01:31:05.273Z,12.29
2019-04-20T01:32:05.970Z,12.41
2019-04-20T01:33:04.814Z,12.49
2019-04-20T01:34:01.844Z,12.46
2019-04-20T01:35:03.983Z,12.52
2019-04-20T01:36:08.762Z,12.49
2019-04-20T01:37:11.692Z,12.62
2019-04-20T01:38:13.976Z,12.59
2019-04-20T01:39:06.700Z,12.60
2019-04-20T01:39:55.475Z,12.51
2019-04-20T01:40:52.713Z,12.49
2019-04-20T01:41:52.205Z,12.51
2019-04-20T01:42:53.219Z,12.51
2019-04-20T01:43:52.353Z,12.44
2019-04-20T01:44:54.089Z,12.27
2019-04-20T01:45:59.778Z,12.15
2019-04-20T01:46:56.878Z,12.08
2019-04-20T01:47:55.891Z,11.93
2019-04-20T01:48:52.672Z,11.96
2019-04-20T01:49:57.475Z,11.87
2019-04-20T01:51:02.523Z,11.97
2019-04-20T01:52:04.813Z,11.94
2019-04-20T01:53:01.583Z,11.90
2019-04-20T01:54:06.540Z,11.97
2019-04-20T01:55:12.893Z,12.02
2019-04-20T01:56:09.882Z,11.96
2019-04-20T01:57:01.724Z,11.97
2019-04-20T01:58:11.619Z,11.96
2019-04-20T01:59:10.579Z,11.99
2019-04-20T02:00:00.557Z,11.94
2019-04-20T02:00:55.909Z,11.89
2019-04-20T02:01:59.285Z,11.82
2019-04-20T02:02:58.755Z,11.75
2019-04-20T02:03:56.781Z,11.74
2019-04-20T02:04:55.347Z,11.80
2019-04-20T02:06:00.203Z,11.86
2019-04-20T02:06:58.178Z,11.89
2019-04-20T02:07:55.407Z,11.97
2019-04-20T02:09:00.297Z,11.87
2019-04-20T02:09:58.353Z,11.94
2019-04-20T02:10:58.485Z,11.86
2019-04-20T02:11:55.277Z,11.85
2019-04-20T02:12:58.324Z,11.82
2019-04-20T02:13:58.786Z,11.80
2019-04-20T02:14:59.015Z,11.77
2019-04-20T02:15:57.811Z,11.72
2019-04-20T02:17:04.484Z,11.75
2019-04-20T02:18:10.352Z,11.65
2019-04-20T02:19:10.998Z,11.56
2019-04-20T02:20:10.707Z,11.54
2019-04-20T02:21:09.430Z,11.59
2019-04-20T02:22:07.796Z,11.50
2019-04-20T02:23:07.367Z,11.52
2019-04-20T02:24:00.363Z,11.41
2019-04-20T02:24:55.146Z,11.34
2019-04-20T02:25:54.271Z,11.31
2019-04-20T02:26:55.615Z,11.29
2019-04-20T02:28:13.604Z,11.21
2019-04-20T02:29:21.776Z,11.13
2019-04-20T02:30:22.052Z,11.19
2019-04-20T02:31:34.339Z,11.10
2019-04-20T02:32:23.923Z,11.10
2019-04-20T02:33:37.571Z,11.03
2019-04-20T02:34:31.609Z,11.01
2019-04-20T02:35:30.069Z,11.06
2019-04-20T02:36:44.225Z,10.98
2019-04-20T02:38:36.517Z,10.92
2019-04-20T02:40:47.814Z,10.73
2019-04-20T02:41:29.449Z,10.81
2019-04-20T02:42:35.308Z,10.80
2019-04-20T02:43:40.516Z,10.81
2019-04-20T02:44:35.619Z,10.78
2019-04-20T02:46:24.815Z,10.70
2019-04-20T02:47:33.836Z,10.76
2019-04-20T02:48:22.022Z,10.68
2019-04-20T02:49:45.409Z,10.66
2019-04-20T02:50:34.367Z,10.68
2019-04-20T02:53:38.064Z,10.56
2019-04-20T02:55:31.732Z,10.60
2019-04-20T02:56:32.606Z,10.62
2019-04-20T02:57:40.300Z,10.66
2019-04-20T02:58:23.368Z,10.74
2019-04-20T02:59:54.100Z,10.74
2019-04-20T03:01:14.661Z,10.91
2019-04-20T03:02:16.743Z,10.89
2019-04-20T03:03:09.973Z,10.92
2019-04-20T03:04:00.746Z,10.81
2019-04-20T03:05:08.232Z,10.83
2019-04-20T03:06:08.567Z,10.84
2019-04-20T03:07:11.867Z,10.71
2019-04-20T03:08:15.428Z,10.62
2019-04-20T03:09:20.336Z,10.66
2019-04-20T03:10:12.446Z,10.63
2019-04-20T03:11:21.235Z,10.59
2019-04-20T03:12:23.596Z,10.62
2019-04-20T03:13:18.627Z,10.47
2019-04-20T03:14:13.714Z,10.51
2019-04-20T03:15:13.931Z,10.43
2019-04-20T03:16:16.336Z,10.37
2019-04-20T03:17:25.262Z,10.37
2019-04-20T03:18:12.085Z,10.44
2019-04-20T03:19:14.046Z,10.53
2019-04-20T03:20:19.923Z,10.62
2019-04-20T03:21:21.078Z,10.68
2019-04-20T03:22:23.591Z,10.80
2019-04-20T03:24:27.021Z,10.84
2019-04-20T03:25:18.078Z,10.96
2019-04-20T03:26:19.238Z,10.96
2019-04-20T03:27:15.872Z,11.09
2019-04-20T03:28:20.527Z,11.09
2019-04-20T03:29:12.840Z,11.03
2019-04-20T03:31:01.305Z,11.14
2019-04-20T03:31:47.393Z,11.10
2019-04-20T03:32:49.804Z,11.10
2019-04-20T03:33:31.783Z,11.09
2019-04-20T03:35:37.138Z,11.11
2019-04-20T03:36:25.951Z,11.10
2019-04-20T03:37:27.956Z,11.10
2019-04-20T03:38:16.887Z,11.13
2019-04-20T03:39:19.060Z,11.09
2019-04-20T03:40:15.286Z,11.10
2019-04-20T03:41:08.366Z,11.06
2019-04-20T03:41:59.288Z,11.10
2019-04-20T03:42:59.027Z,10.95
2019-04-20T03:44:03.170Z,10.92
2019-04-20T03:45:04.080Z,10.78
2019-04-20T03:46:05.572Z,10.80
2019-04-20T03:47:02.814Z,10.74
2019-04-20T03:48:09.108Z,10.71
2019-04-20T03:49:14.553Z,10.71
2019-04-20T03:50:16.110Z,10.66
2019-04-20T03:51:27.939Z,10.66
2019-04-20T03:52:20.217Z,10.63
2019-04-20T03:53:19.242Z,10.62
2019-04-20T03:54:14.775Z,10.66
2019-04-20T03:55:16.492Z,10.55
2019-04-20T03:56:22.793Z,10.51
2019-04-20T03:57:21.172Z,10.46
2019-04-20T03:58:19.797Z,10.42
2019-04-20T03:59:15.594Z,10.39
2019-04-20T04:00:16.267Z,10.40
2019-04-20T04:01:22.737Z,10.32
2019-04-20T04:03:29.005Z,10.04
2019-04-20T04:04:25.187Z,9.97
2019-04-20T04:05:08.929Z,10.01
2019-04-20T04:06:09.596Z,9.94
2019-04-20T04:07:01.869Z,9.85
2019-04-20T04:08:10.348Z,9.89
2019-04-20T04:09:15.034Z,9.82
2019-04-20T04:10:15.795Z,9.81
2019-04-20T04:11:18.975Z,9.81
2019-04-20T04:12:12.468Z,9.89
2019-04-20T04:12:59.253Z,9.89
2019-04-20T04:13:59.305Z,9.85
2019-04-20T04:14:59.851Z,9.82
2019-04-20T04:16:04.824Z,9.83
2019-04-20T04:17:02.387Z,9.78
2019-04-20T04:18:07.571Z,9.75
2019-04-20T04:19:09.975Z,9.78
2019-04-20T04:20:05.111Z,9.71
2019-04-20T04:21:05.239Z,9.73
2019-04-20T04:22:15.346Z,9.66
2019-04-20T04:23:15.005Z,9.60
2019-04-20T04:24:13.421Z,9.67
2019-04-20T04:25:14.879Z,9.58
2019-04-20T04:26:17.564Z,9.56
2019-04-20T04:27:16.220Z,9.56
2019-04-20T04:28:15.479Z,9.52
2019-04-20T04:29:22.753Z,9.43
2019-04-20T04:30:14.836Z,9.48
2019-04-20T04:31:16.014Z,9.34
2019-04-20T04:32:33.058Z,9.39
2019-04-20T04:33:39.929Z,9.34
2019-04-20T04:34:20.555Z,9.35
2019-04-20T04:35:14.250Z,9.30
2019-04-20T04:36:13.554Z,9.28
2019-04-20T04:37:22.859Z,9.23
2019-04-20T04:38:24.111Z,9.01
2019-04-20T04:39:22.116Z,8.97
2019-04-20T04:40:26.022Z,8.94
2019-04-20T04:42:24.990Z,8.91
2019-04-20T04:43:19.898Z,8.81
2019-04-20T04:44:15.262Z,8.81
2019-04-20T04:45:06.176Z,8.84
2019-04-20T04:46:01.707Z,8.83
2019-04-20T04:47:05.166Z,8.86
2019-04-20T04:48:01.995Z,8.91
2019-04-20T04:49:09.574Z,8.87
2019-04-20T04:50:09.574Z,8.88
2019-04-20T04:51:08.616Z,8.94
2019-04-20T04:52:06.182Z,9.02
2019-04-20T04:53:09.336Z,9.02
2019-04-20T04:54:12.877Z,8.99
2019-04-20T04:55:10.885Z,9.01
2019-04-20T04:56:07.176Z,8.97
2019-04-20T04:57:01.303Z,9.05
2019-04-20T04:58:02.309Z,9.04
2019-04-20T04:59:02.346Z,9.01
2019-04-20T05:00:01.691Z,9.02
2019-04-20T05:01:05.645Z,9.02
2019-04-20T05:02:02.145Z,9.01
2019-04-20T05:03:13.474Z,9.04
2019-04-20T05:04:22.991Z,9.06
2019-04-20T05:05:25.442Z,9.10
2019-04-20T05:06:19.811Z,9.02
2019-04-20T05:07:16.089Z,9.12
2019-04-20T05:08:10.191Z,9.15
2019-04-20T05:09:05.212Z,9.13
2019-04-20T05:10:01.869Z,9.18
2019-04-20T05:11:02.684Z,9.16
2019-04-20T05:12:07.251Z,9.23
2019-04-20T05:13:02.942Z,9.24
2019-04-20T05:14:06.726Z,9.25
2019-04-20T05:15:10.127Z,9.23
2019-04-20T05:16:15.851Z,9.21
2019-04-20T05:17:20.710Z,9.34
2019-04-20T05:18:27.656Z,9.38
2019-04-20T05:19:23.577Z,9.35
2019-04-20T05:20:18.058Z,9.40
2019-04-20T05:21:23.035Z,9.30
2019-04-20T05:22:29.555Z,9.39
2019-04-20T05:23:18.827Z,9.32
2019-04-20T05:24:16.897Z,9.34
2019-04-20T05:25:22.060Z,9.39
2019-04-20T05:26:26.938Z,9.35
2019-04-20T05:27:24.613Z,9.39
2019-04-20T05:28:16.734Z,9.28
2019-04-20T05:29:10.509Z,9.39
2019-04-20T05:30:03.650Z,9.38
2019-04-20T05:31:06.263Z,9.43
2019-04-20T05:32:10.718Z,9.42
2019-04-20T05:33:08.322Z,9.43
2019-04-20T05:34:25.792Z,9.50
2019-04-20T05:35:26.827Z,9.50
2019-04-20T05:36:23.199Z,9.58
2019-04-20T05:37:31.050Z,9.56
2019-04-20T05:38:32.704Z,9.61
2019-04-20T05:39:26.823Z,9.68
2019-04-20T05:40:29.285Z,9.73
2019-04-20T05:41:22.799Z,9.79
2019-04-20T05:42:23.200Z,9.83
2019-04-20T05:43:24.611Z,9.88
2019-04-20T05:44:16.918Z,9.97
2019-04-20T05:45:22.594Z,9.99
2019-04-20T05:46:26.197Z,10.04
2019-04-20T05:47:21.399Z,10.07
2019-04-20T05:48:19.675Z,10.12
2019-04-20T05:49:25.848Z,10.15
2019-04-20T05:50:23.284Z,10.18
2019-04-20T05:51:29.499Z,10.25
2019-04-20T05:52:54.603Z,10.30
2019-04-20T05:53:30.489Z,10.40
2019-04-20T05:54:25.513Z,10.63
2019-04-20T05:55:25.506Z,10.74
2019-04-20T05:56:30.811Z,10.91
2019-04-20T05:57:50.753Z,11.02
2019-04-20T05:58:29.447Z,11.11
2019-04-20T05:59:23.847Z,11.34
2019-04-20T06:00:32.056Z,11.52
2019-04-20T06:01:25.794Z,11.62
2019-04-20T06:02:27.660Z,11.78
2019-04-20T06:03:23.240Z,11.94
2019-04-20T06:04:40.998Z,11.96
2019-04-20T06:05:27.508Z,12.02
2019-04-20T06:06:29.205Z,11.94
2019-04-20T06:07:26.824Z,12.08
2019-04-20T06:08:33.088Z,12.13
2019-04-20T06:09:31.711Z,12.27
2019-04-20T06:10:29.037Z,12.31
2019-04-20T06:11:25.794Z,12.39
2019-04-20T06:12:28.586Z,12.41
2019-04-20T06:13:17.293Z,12.48
2019-04-20T06:14:14.710Z,12.56
2019-04-20T06:15:19.940Z,12.42
2019-04-20T06:16:24.127Z,12.34
2019-04-20T06:17:26.498Z,12.39
2019-04-20T06:18:21.194Z,12.51
2019-04-20T06:20:28.365Z,12.56
2019-04-20T06:21:35.406Z,12.57
2019-04-20T06:22:31.114Z,12.67
2019-04-20T06:23:37.652Z,12.70
2019-04-20T06:24:36.377Z,12.71
2019-04-20T06:26:40.045Z,12.87
2019-04-20T06:27:30.537Z,12.82
2019-04-20T06:28:22.178Z,12.96
2019-04-20T06:29:22.313Z,12.93
2019-04-20T06:30:21.917Z,12.95
2019-04-20T06:31:31.312Z,13.00
2019-04-20T06:32:37.350Z,13.12
2019-04-20T06:35:40.603Z,13.21
2019-04-20T06:36:32.517Z,13.25
2019-04-20T06:37:25.776Z,13.30
2019-04-20T06:38:42.257Z,13.30
2019-04-20T06:39:33.573Z,13.37
2019-04-20T06:40:45.815Z,13.43
2019-04-20T06:41:45.266Z,13.41
2019-04-20T06:42:21.974Z,13.43
2019-04-20T06:43:36.827Z,13.56
2019-04-20T06:44:33.203Z,14.14
2019-04-20T06:45:33.312Z,14.67
2019-04-20T06:46:28.546Z,15.43
2019-04-20T06:47:33.722Z,15.74
2019-04-20T06:48:35.333Z,16.07
2019-04-20T06:50:24.619Z,16.92
2019-04-20T06:51:29.843Z,17.22
2019-04-20T06:52:36.760Z,17.57
2019-04-20T06:53:32.534Z,17.53
2019-04-20T06:54:19.014Z,17.15
2019-04-20T06:55:28.896Z,17.51
2019-04-20T06:56:31.822Z,18.04
2019-04-20T06:57:33.182Z,18.00
2019-04-20T06:58:41.979Z,17.67
2019-04-20T06:59:36.010Z,17.46
2019-04-20T07:00:29.099Z,17.92
2019-04-20T07:01:38.682Z,18.58
2019-04-20T07:02:44.786Z,18.90
2019-04-20T07:03:46.721Z,19.05
2019-04-20T07:04:41.999Z,18.98
2019-04-20T07:05:26.021Z,19.29
2019-04-20T07:06:44.751Z,19.43
2019-04-20T07:07:32.102Z,19.20
2019-04-20T07:08:42.351Z,19.46
2019-04-20T07:09:42.040Z,19.63
2019-04-20T07:10:34.494Z,20.05
2019-04-20T07:11:29.334Z,19.69
2019-04-20T07:12:31.184Z,19.33
2019-04-20T07:13:22.972Z,18.40
2019-04-20T07:14:17.289Z,18.15
2019-04-20T07:15:25.540Z,18.17
2019-04-20T07:16:28.651Z,18.06
2019-04-20T07:17:39.374Z,18.52
2019-04-20T07:18:31.322Z,18.79
2019-04-20T07:19:31.651Z,18.74
2019-04-20T07:20:27.854Z,18.55
2019-04-20T07:21:43.686Z,18.79
2019-04-20T07:24:38.480Z,19.42
2019-04-20T07:25:34.550Z,19.68
2019-04-20T07:26:34.586Z,19.20
2019-04-20T07:27:30.759Z,18.80
2019-04-20T07:28:35.419Z,19.29
2019-04-20T07:29:36.721Z,19.53
2019-04-20T07:30:30.586Z,19.40
2019-04-20T07:31:35.226Z,18.95
2019-04-20T07:32:23.978Z,18.55
2019-04-20T07:33:34.950Z,18.91
2019-04-20T07:34:28.067Z,18.94
2019-04-20T07:35:30.498Z,18.92
2019-04-20T07:36:32.315Z,18.43
2019-04-20T07:39:33.442Z,18.52
2019-04-20T07:40:28.797Z,18.34
2019-04-20T07:41:43.560Z,17.76
2019-04-20T07:42:34.608Z,18.02
2019-04-20T07:43:30.141Z,18.50
2019-04-20T07:44:37.647Z,19.11
2019-04-20T07:45:29.597Z,19.21
2019-04-20T07:46:42.908Z,19.86
2019-04-20T07:47:34.758Z,19.93
2019-04-20T07:48:27.675Z,19.86
2019-04-20T07:49:28.986Z,20.28
2019-04-20T07:50:25.194Z,19.70
2019-04-20T07:51:18.450Z,19.54
2019-04-20T07:52:10.262Z,19.38
2019-04-20T07:53:28.409Z,19.11
2019-04-20T07:54:37.507Z,19.73
2019-04-20T07:55:40.439Z,19.73
2019-04-20T07:56:32.636Z,19.76
2019-04-20T07:57:25.696Z,19.48
2019-04-20T07:58:22.789Z,19.33
2019-04-20T07:59:23.391Z,19.63
2019-04-20T08:00:37.300Z,19.73
2019-04-20T08:01:38.774Z,19.48
2019-04-20T08:02:37.704Z,18.97
2019-04-20T08:03:33.783Z,19.40
2019-04-20T08:04:28.804Z,20.08
2019-04-20T08:05:22.521Z,20.18
2019-04-20T08:06:19.338Z,20.62
2019-04-20T08:07:13.663Z,20.95
2019-04-20T08:08:28.285Z,21.38
2019-04-20T08:09:22.035Z,21.85
2019-04-20T08:10:28.740Z,22.29
2019-04-20T08:11:31.775Z,22.68
2019-04-20T08:12:33.490Z,22.75
2019-04-20T08:14:31.896Z,22.06
2019-04-20T08:16:40.648Z,20.62
2019-04-20T08:17:37.112Z,20.38
2019-04-20T08:18:32.228Z,20.21
2019-04-20T08:19:27.292Z,19.75
2019-04-20T08:20:36.977Z,20.05
2019-04-20T08:21:36.185Z,19.83
2019-04-20T08:22:33.842Z,20.08
2019-04-20T08:23:28.580Z,20.47
2019-04-20T08:24:27.676Z,19.91
2019-04-20T08:25:24.805Z,20.15
2019-04-20T08:26:18.258Z,20.58
2019-04-20T08:27:13.166Z,20.79
2019-04-20T08:28:17.698Z,21.20
2019-04-20T08:29:23.915Z,20.91
2019-04-20T08:30:29.197Z,20.15
2019-04-20T08:31:29.208Z,20.06
2019-04-20T08:32:28.060Z,19.78
2019-04-20T08:33:30.912Z,20.09
2019-04-20T08:34:38.013Z,19.87
2019-04-20T08:35:32.060Z,20.12
2019-04-20T08:36:34.525Z,20.62
2019-04-20T08:37:34.363Z,20.84
2019-04-20T08:38:58.616Z,20.93
2019-04-20T08:39:46.395Z,21.42
2019-04-20T08:40:36.075Z,21.76
2019-04-20T08:41:25.072Z,21.23
2019-04-20T08:42:37.998Z,20.69
2019-04-20T08:43:42.271Z,20.35
2019-04-20T08:45:34.847Z,20.28
2019-04-20T08:46:38.320Z,20.69
2019-04-20T08:47:48.601Z,20.41
2019-04-20T08:48:34.071Z,20.31
2019-04-20T08:49:37.953Z,20.65
2019-04-20T08:50:38.219Z,20.80
2019-04-20T08:51:45.072Z,20.96
2019-04-20T08:52:55.529Z,21.29
2019-04-20T08:53:37.605Z,20.99
2019-04-20T08:54:31.275Z,20.54
2019-04-20T08:55:29.411Z,20.49
2019-04-20T08:56:25.906Z,20.34
2019-04-20T08:57:13.515Z,20.23
2019-04-20T08:58:13.756Z,20.34
2019-04-20T08:59:13.788Z,20.61
2019-04-20T09:00:13.321Z,20.99
2019-04-20T09:01:20.018Z,20.62
2019-04-20T09:02:15.724Z,20.62
2019-04-20T09:03:21.941Z,19.84
2019-04-20T09:04:20.177Z,19.40
2019-04-20T09:05:29.029Z,18.95
2019-04-20T09:06:31.005Z,19.25
2019-04-20T09:07:19.545Z,19.58
2019-04-20T09:08:18.832Z,19.61
2019-04-20T09:10:34.332Z,19.72
2019-04-20T09:11:31.147Z,19.40
2019-04-20T09:12:33.238Z,19.28
2019-04-20T09:13:25.979Z,19.43
2019-04-20T09:14:14.126Z,19.47
2019-04-20T09:15:14.781Z,19.24
2019-04-20T09:16:15.258Z,19.55
2019-04-20T09:17:23.020Z,20.05
2019-04-20T09:18:22.843Z,20.06
2019-04-20T09:19:24.812Z,20.20
2019-04-20T09:20:28.430Z,19.60
2019-04-20T09:21:24.310Z,19.18
2019-04-20T09:22:24.396Z,19.08
2019-04-20T09:23:28.656Z,18.90
2019-04-20T09:24:37.670Z,19.05
2019-04-20T09:25:50.078Z,19.23
2019-04-20T09:26:32.356Z,19.33
2019-04-20T09:27:27.013Z,19.35
2019-04-20T09:28:22.276Z,19.35
2019-04-20T09:29:31.936Z,19.50
2019-04-20T09:30:30.297Z,19.55
2019-04-20T09:31:31.289Z,19.51
2019-04-20T09:32:28.978Z,19.65
2019-04-20T09:33:35.999Z,19.87
2019-04-20T09:34:39.351Z,19.51
2019-04-20T09:35:34.202Z,19.38
2019-04-20T09:36:27.646Z,19.60
2019-04-20T09:37:29.424Z,19.14
2019-04-20T09:38:30.629Z,18.59
2019-04-20T09:39:24.727Z,18.34
2019-04-20T09:40:40.453Z,18.29
2019-04-20T09:41:42.274Z,18.19
2019-04-20T09:42:15.464Z,18.46
2019-04-20T09:43:17.039Z,18.72
2019-04-20T09:44:15.642Z,19.25
2019-04-20T09:45:23.314Z,19.06
2019-04-20T09:46:15.796Z,18.87
2019-04-20T09:47:23.836Z,18.77
2019-04-20T09:48:23.233Z,18.00
2019-04-20T09:49:24.874Z,17.89
2019-04-20T09:50:31.924Z,18.00
2019-04-20T09:51:33.506Z,18.36
2019-04-20T09:52:30.052Z,18.00
2019-04-20T09:53:33.023Z,17.66
2019-04-20T09:54:36.076Z,17.74
2019-04-20T09:55:27.899Z,18.18
2019-04-20T09:56:34.585Z,18.24
2019-04-20T09:57:33.316Z,17.99
2019-04-20T09:58:27.164Z,17.70
2019-04-20T09:59:33.139Z,18.00
2019-04-20T10:00:33.922Z,18.31
2019-04-20T10:01:27.616Z,18.64
2019-04-20T10:02:23.547Z,18.84
2019-04-20T10:03:16.642Z,18.94
2019-04-20T10:04:17.524Z,18.67
2019-04-20T10:05:17.708Z,18.86
2019-04-20T10:06:18.864Z,18.84
2019-04-20T10:07:21.350Z,19.05
2019-04-20T10:08:17.614Z,19.17
2019-04-20T10:09:21.333Z,19.39
2019-04-20T10:10:27.896Z,19.20
2019-04-20T10:11:17.309Z,18.86
2019-04-20T10:12:17.627Z,18.65
2019-04-20T10:13:17.461Z,18.54
2019-04-20T10:14:17.136Z,18.84
2019-04-20T10:15:20.976Z,18.83
2019-04-20T10:16:17.737Z,18.90
2019-04-20T10:17:18.059Z,18.64
2019-04-20T10:18:17.512Z,18.40
2019-04-20T10:19:23.540Z,18.02
2019-04-20T10:20:24.388Z,18.15
2019-04-20T10:21:18.022Z,18.28
2019-04-20T10:22:18.431Z,18.31
2019-04-20T10:23:18.540Z,18.54
2019-04-20T10:24:18.790Z,18.07
2019-04-20T10:25:18.302Z,18.13
2019-04-20T10:26:18.669Z,18.22
2019-04-20T10:27:18.751Z,18.80
2019-04-20T10:28:19.092Z,19.53
2019-04-20T10:29:17.923Z,19.06
2019-04-20T10:30:18.611Z,18.67
2019-04-20T10:31:18.018Z,18.12
2019-04-20T10:32:19.597Z,18.02
2019-04-20T10:33:19.480Z,18.02
2019-04-20T10:34:20.780Z,18.65
2019-04-20T10:35:18.817Z,18.65
2019-04-20T10:36:19.469Z,19.24
2019-04-20T10:37:19.651Z,19.47
2019-04-20T10:38:18.414Z,19.33
2019-04-20T10:39:18.575Z,18.94
2019-04-20T10:40:35.776Z,19.33
2019-04-20T10:41:29.753Z,19.98
2019-04-20T10:42:18.592Z,20.24
2019-04-20T10:43:19.742Z,20.39
2019-04-20T10:44:18.766Z,20.69
2019-04-20T10:45:19.021Z,20.15
2019-04-20T10:46:18.806Z,20.06
2019-04-20T10:47:18.997Z,20.13
2019-04-20T10:48:19.349Z,20.09
2019-04-20T10:49:19.386Z,20.65
2019-04-20T10:50:19.046Z,21.09
2019-04-20T10:51:19.812Z,21.81
2019-04-20T10:52:20.001Z,22.02
2019-04-20T10:53:19.645Z,21.95
2019-04-20T10:54:20.227Z,21.76
2019-04-20T10:55:20.640Z,21.59
2019-04-20T10:56:19.335Z,21.57
2019-04-20T10:57:19.535Z,21.71
2019-04-20T10:58:19.755Z,21.95
2019-04-20T10:59:19.510Z,22.06
2019-04-20T11:00:19.697Z,21.76
2019-04-20T11:01:19.921Z,21.67
2019-04-20T11:02:19.673Z,22.04
2019-04-20T11:03:19.796Z,22.43
2019-04-20T11:04:20.888Z,22.96
2019-04-20T11:05:20.368Z,23.08
2019-04-20T11:06:20.572Z,21.54
2019-04-20T11:07:20.754Z,20.80
2019-04-20T11:08:20.329Z,20.56
2019-04-20T11:09:20.702Z,20.79
2019-04-20T11:10:25.317Z,21.42
2019-04-20T11:11:26.408Z,22.02
2019-04-20T11:12:20.198Z,22.60
2019-04-20T11:13:21.452Z,23.15
2019-04-20T11:14:27.542Z,23.50
2019-04-20T11:15:20.953Z,23.05
2019-04-20T11:16:20.419Z,22.75
2019-04-20T11:17:20.521Z,22.78
2019-04-20T11:18:21.654Z,21.83
2019-04-20T11:19:21.234Z,21.82
2019-04-20T11:20:21.409Z,22.17
2019-04-20T11:21:21.831Z,21.76
2019-04-20T11:22:22.139Z,21.24
2019-04-20T11:23:20.801Z,20.98
2019-04-20T11:24:20.882Z,20.71
2019-04-20T11:25:22.101Z,20.65
2019-04-20T11:26:22.041Z,20.87
2019-04-20T11:27:22.453Z,20.66
2019-04-20T11:28:21.977Z,20.95
2019-04-20T11:29:22.211Z,20.74
2019-04-20T11:30:22.406Z,20.98
2019-04-20T11:31:21.974Z,21.59
2019-04-20T11:32:22.229Z,22.09
2019-04-20T11:33:22.379Z,21.64
2019-04-20T11:34:25.573Z,21.91
2019-04-20T11:35:27.815Z,21.39
2019-04-20T11:36:21.518Z,21.17
2019-04-20T11:37:21.573Z,21.13
2019-04-20T11:38:21.993Z,21.24
2019-04-20T11:39:22.974Z,21.72
2019-04-20T11:40:21.755Z,22.01
2019-04-20T11:41:26.162Z,21.88
2019-04-20T11:42:21.848Z,21.67
2019-04-20T11:43:21.918Z,21.61
2019-04-20T11:44:21.947Z,21.39
2019-04-20T11:45:22.602Z,21.02
2019-04-20T11:46:22.817Z,20.98
2019-04-20T11:47:22.115Z,21.44
2019-04-20T11:48:23.358Z,21.59
2019-04-20T11:49:23.547Z,21.97
2019-04-20T11:50:22.359Z,22.56
2019-04-20T11:51:23.384Z,22.62
2019-04-20T11:52:23.715Z,22.64
2019-04-20T11:53:25.260Z,22.52
2019-04-20T11:54:22.500Z,22.39
2019-04-20T11:55:22.583Z,21.71
2019-04-20T11:56:28.029Z,20.86
2019-04-20T11:57:22.679Z,20.64
2019-04-20T11:58:23.826Z,20.96
2019-04-20T11:59:23.151Z,21.21
2019-04-20T12:00:25.139Z,21.82
2019-04-20T12:01:27.171Z,22.62
2019-04-20T12:02:30.150Z,22.86
2019-04-20T12:03:29.825Z,22.90
2019-04-20T12:04:35.194Z,23.07
2019-04-20T12:05:33.578Z,22.90
2019-04-20T12:06:23.210Z,22.62
2019-04-20T12:07:24.774Z,22.69
2019-04-20T12:08:23.288Z,22.65
2019-04-20T12:09:24.526Z,22.77
2019-04-20T12:10:24.534Z,22.19
2019-04-20T12:11:36.168Z,21.32
2019-04-20T12:12:34.347Z,20.64
2019-04-20T12:13:24.805Z,20.30
2019-04-20T12:14:24.690Z,20.31
2019-04-20T12:15:24.464Z,20.06
2019-04-20T12:16:25.597Z,20.05
2019-04-20T12:17:23.860Z,20.06
2019-04-20T12:18:23.861Z,19.70
2019-04-20T12:19:24.854Z,19.84
2019-04-20T12:20:25.023Z,19.80
2019-04-20T12:21:24.049Z,19.84
2019-04-20T12:22:24.165Z,20.09
2019-04-20T12:23:24.462Z,20.05
2019-04-20T12:24:24.650Z,20.41
2019-04-20T12:25:24.246Z,20.56
2019-04-20T12:26:24.835Z,20.89
2019-04-20T12:27:24.953Z,21.08
2019-04-20T12:28:25.382Z,20.87
2019-04-20T12:29:25.717Z,20.93
2019-04-20T12:30:25.808Z,20.95
2019-04-20T12:31:27.482Z,21.08
2019-04-20T12:32:28.239Z,21.24
2019-04-20T12:33:24.700Z,21.23
2019-04-20T12:34:24.777Z,21.41
2019-04-20T12:35:24.853Z,21.99
2019-04-20T12:36:25.979Z,22.52
2019-04-20T12:37:25.122Z,22.86
2019-04-20T12:38:25.277Z,23.39
2019-04-20T12:39:25.037Z,23.76
2019-04-20T12:40:25.893Z,23.67
2019-04-20T12:41:34.459Z,23.64
2019-04-20T12:42:25.314Z,23.08
2019-04-20T12:43:25.513Z,22.54
2019-04-20T12:44:25.820Z,22.12
2019-04-20T12:45:25.935Z,22.38
2019-04-20T12:46:26.757Z,22.89
2019-04-20T12:47:25.751Z,23.23
2019-04-20T12:48:25.946Z,23.39
2019-04-20T12:49:25.607Z,23.14
2019-04-20T12:50:25.726Z,23.20
2019-04-20T12:51:33.925Z,23.79
2019-04-20T12:52:26.298Z,24.23
2019-04-20T12:53:26.523Z,24.32
2019-04-20T12:54:26.926Z,24.02
2019-04-20T12:55:26.410Z,23.58
2019-04-20T12:56:26.514Z,23.32
2019-04-20T12:57:26.810Z,23.12
2019-04-20T12:58:26.336Z,22.77
2019-04-20T12:59:27.417Z,22.69
2019-04-20T13:00:27.705Z,22.77
2019-04-20T13:01:26.340Z,22.56
2019-04-20T13:02:27.271Z,22.64
2019-04-20T13:03:27.565Z,22.97
2019-04-20T13:04:26.845Z,22.92
2019-04-20T13:05:27.658Z,23.08
2019-04-20T13:06:27.915Z,23.43
2019-04-20T13:07:26.907Z,23.95
2019-04-20T13:08:33.687Z,24.20
2019-04-20T13:09:26.871Z,24.50
2019-04-20T13:10:27.524Z,24.82
2019-04-20T13:11:26.888Z,25.28
2019-04-20T13:12:30.171Z,25.65
2019-04-20T13:13:28.130Z,25.83
2019-04-20T13:14:28.333Z,26.04
2019-04-20T13:15:28.645Z,25.52
2019-04-20T13:16:28.131Z,25.64
2019-04-20T13:17:28.311Z,25.13
2019-04-20T13:18:27.441Z,25.27
2019-04-20T13:19:27.364Z,24.82
2019-04-20T13:20:28.054Z,24.50
2019-04-20T13:21:27.500Z,23.87